Weather at Uzundzhovo Air Base [CLOSED]

Public forecast

Using degrees Celsius for public forecast. Weather courtesy of forecast.io.

Closest aviation weather report (METAR) to Uzundzhovo Air Base

Closest report is Plovdiv International Airport, 33.4 nm (61.9 km) W.

2024/04/16 16:30 (retrieved 26 minutes ago)

LBPD 161630Z AUTO 16003KT 9999 BKN150/// 25/15 Q1002 NOSIG

Closest aviation forecast (TAF) to Uzundzhovo Air Base

Closest forecast is Plovdiv International Airport, 33.4 nm (61.9 km) W.

2024/04/16 12:18 (retrieved 5 hours ago)

TAF LBPD 161100Z 1612/1712 14010KT 9999 SCT070 BECMG 1615/1617 20010KT BECMG 1620/1622 VRB04KT PROB30 TEMPO 1703/1706 5000 RA SCT030 BKN050 BECMG 1709/1710 20010KT PROB40 TEMPO 1710/1712 5000 TSRA FEW030CB BKN040